Portada
METAR-TAF:

METAR-TAF

Aeroports :

Monticello Municipal Airport/Ellis Field

Monticello, Arkansas, Estats Units d'Amèrica

latitud: 33-38-18N, longitud: 091-45-04W, altitud: 82 m

Observació

L'informe es va fer fa 27 minuts, a les 12:53 UTC
Vent 3 kt amb direcció variable
Temperatura 21°C
Humitat 69%
Pressió 1021 hPa
Visibilitat: 16.1 km
Cel clar

METAR: KLLQ 301253Z AUTO VRB03KT 10SM CLR 21/15 A3015 RMK AO2 SLP205 T02060150

Hora: 08:20 (13:20 UTC)

Pronòstic

L'informe es va fer fa 2 hores i 0 minuts, a les 11:20 UTC
Pronòstic vàlid del 30 a les 12 UTC al 31 a les 12 UTC
Vent 4 kt amb direcció variable
Visibilitat: 10 km
Cel clar

TAF: KLLQ 301120Z 3012/3112 VRB04KT P6SM SKC

Observacions i pronòstics meteorològics de més de 4000 aeroports (METAR i TAF).

Les estacions disponibles són els punts grocs i vermells al mapa.

Posi el ratolí al punt desitjat per veure el nom de l'estació.

Feu clic per veure les observacions i els pronòstics meteorològics.

Per canviar el mapa: feu clic els botons verds amb una creu de color negre per apropar; al botó verd amb un guió per allunyar la imatge; o en les fletxes verdes per a mapes adjacents.


METAR-TAF: